sensor_id;sensor_type;location;lat;lon;timestamp;P1;durP1;ratioP1;P2;durP2;ratioP2
553;SDS011;59;48.778;9.156;2022-08-03T06:16:55;4.70;;;4.40;;
553;SDS011;59;48.778;9.156;2022-08-03T06:19:20;5.90;;;4.13;;
553;SDS011;59;48.778;9.156;2022-08-03T06:21:48;5.00;;;4.20;;
553;SDS011;59;48.778;9.156;2022-08-03T06:24:14;6.40;;;4.33;;
553;SDS011;59;48.778;9.156;2022-08-03T06:26:40;4.80;;;4.03;;
553;SDS011;59;48.778;9.156;2022-08-03T06:29:06;4.23;;;4.00;;
553;SDS011;59;48.778;9.156;2022-08-03T06:31:32;4.50;;;4.20;;
553;SDS011;59;48.778;9.156;2022-08-03T06:33:57;5.57;;;4.80;;
553;SDS011;59;48.778;9.156;2022-08-03T06:36:24;5.10;;;4.63;;
553;SDS011;59;48.778;9.156;2022-08-03T06:38:55;4.63;;;4.27;;
553;SDS011;59;48.778;9.156;2022-08-03T06:41:24;4.50;;;4.20;;
553;SDS011;59;48.778;9.156;2022-08-03T06:43:50;4.33;;;4.03;;
553;SDS011;59;48.778;9.156;2022-08-03T06:46:16;4.43;;;4.20;;
553;SDS011;59;48.778;9.156;2022-08-03T06:48:42;5.57;;;4.10;;
553;SDS011;59;48.778;9.156;2022-08-03T06:51:07;4.20;;;4.00;;
553;SDS011;59;48.778;9.156;2022-08-03T06:53:34;4.93;;;4.07;;
553;SDS011;59;48.778;9.156;2022-08-03T06:55:59;4.67;;;4.40;;
553;SDS011;59;48.778;9.156;2022-08-03T06:58:25;4.77;;;4.20;;
553;SDS011;59;48.778;9.156;2022-08-03T07:00:51;6.43;;;4.50;;
553;SDS011;59;48.778;9.156;2022-08-03T07:03:16;6.37;;;4.23;;
553;SDS011;59;48.778;9.156;2022-08-03T07:05:42;4.93;;;4.50;;
553;SDS011;59;48.778;9.156;2022-08-03T07:08:10;5.30;;;4.00;;
553;SDS011;59;48.778;9.156;2022-08-03T07:10:36;6.20;;;4.10;;
553;SDS011;59;48.778;9.156;2022-08-03T07:13:02;3.93;;;3.77;;
553;SDS011;59;48.778;9.156;2022-08-03T07:15:28;4.20;;;3.90;;
553;SDS011;59;48.778;9.156;2022-08-03T07:17:55;4.33;;;3.80;;
553;SDS011;59;48.778;9.156;2022-08-03T07:20:21;5.20;;;3.70;;
553;SDS011;59;48.778;9.156;2022-08-03T07:22:47;4.43;;;3.87;;
553;SDS011;59;48.778;9.156;2022-08-03T07:25:12;4.23;;;3.23;;
553;SDS011;59;48.778;9.156;2022-08-03T07:27:42;4.33;;;3.97;;
553;SDS011;59;48.778;9.156;2022-08-03T07:30:11;5.70;;;3.87;;
553;SDS011;59;48.778;9.156;2022-08-03T07:35:55;5.80;;;4.27;;
553;SDS011;59;48.778;9.156;2022-08-03T07:38:21;4.70;;;4.10;;
553;SDS011;59;48.778;9.156;2022-08-03T07:40:47;5.90;;;4.50;;
553;SDS011;59;48.778;9.156;2022-08-03T07:43:12;5.13;;;4.33;;
553;SDS011;59;48.778;9.156;2022-08-03T07:45:38;5.90;;;4.30;;
553;SDS011;59;48.778;9.156;2022-08-03T07:50:54;8.80;;;4.73;;
553;SDS011;59;48.778;9.156;2022-08-03T07:53:20;5.07;;;4.20;;
553;SDS011;59;48.778;9.156;2022-08-03T07:55:46;3.67;;;3.40;;
553;SDS011;59;48.778;9.156;2022-08-03T07:58:12;4.37;;;2.80;;
553;SDS011;59;48.778;9.156;2022-08-03T08:00:40;5.53;;;2.87;;
553;SDS011;59;48.778;9.156;2022-08-03T08:03:06;3.20;;;2.70;;
553;SDS011;59;48.778;9.156;2022-08-03T08:05:32;2.67;;;2.30;;
553;SDS011;59;48.778;9.156;2022-08-03T08:07:59;3.43;;;2.43;;
553;SDS011;59;48.778;9.156;2022-08-03T08:10:25;3.93;;;3.00;;
553;SDS011;59;48.778;9.156;2022-08-03T08:12:51;2.57;;;2.30;;
553;SDS011;59;48.778;9.156;2022-08-03T08:15:17;2.77;;;2.47;;
553;SDS011;59;48.778;9.156;2022-08-03T08:17:47;2.73;;;2.57;;
553;SDS011;59;48.778;9.156;2022-08-03T08:20:17;2.53;;;2.33;;
553;SDS011;59;48.778;9.156;2022-08-03T08:22:44;6.10;;;2.47;;
553;SDS011;59;48.778;9.156;2022-08-03T08:25:10;2.60;;;2.17;;
553;SDS011;59;48.778;9.156;2022-08-03T08:27:43;3.70;;;2.50;;
553;SDS011;59;48.778;9.156;2022-08-03T08:30:09;2.90;;;2.43;;
553;SDS011;59;48.778;9.156;2022-08-03T08:32:36;3.57;;;2.30;;
553;SDS011;59;48.778;9.156;2022-08-03T08:35:02;4.40;;;2.70;;
553;SDS011;59;48.778;9.156;2022-08-03T08:37:28;2.70;;;2.40;;
553;SDS011;59;48.778;9.156;2022-08-03T08:39:54;3.87;;;2.20;;
553;SDS011;59;48.778;9.156;2022-08-03T08:42:20;6.83;;;2.60;;
553;SDS011;59;48.778;9.156;2022-08-03T08:44:46;2.97;;;2.20;;
553;SDS011;59;48.778;9.156;2022-08-03T08:47:12;2.60;;;2.07;;
553;SDS011;59;48.778;9.156;2022-08-03T08:49:38;3.80;;;3.40;;
553;SDS011;59;48.778;9.156;2022-08-03T08:52:05;6.83;;;3.73;;
553;SDS011;59;48.778;9.156;2022-08-03T08:54:32;6.00;;;3.23;;
553;SDS011;59;48.778;9.156;2022-08-03T08:57:00;5.80;;;2.73;;
553;SDS011;59;48.778;9.156;2022-08-03T08:59:28;12.30;;;2.57;;
553;SDS011;59;48.778;9.156;2022-08-03T09:01:57;3.70;;;2.63;;
553;SDS011;59;48.778;9.156;2022-08-03T09:04:23;4.77;;;2.20;;
553;SDS011;59;48.778;9.156;2022-08-03T09:06:49;4.30;;;2.70;;
553;SDS011;59;48.778;9.156;2022-08-03T09:09:16;10.83;;;3.40;;
553;SDS011;59;48.778;9.156;2022-08-03T09:11:41;6.23;;;3.80;;
553;SDS011;59;48.778;9.156;2022-08-03T09:14:08;3.03;;;2.30;;
553;SDS011;59;48.778;9.156;2022-08-03T09:16:34;5.40;;;2.57;;
553;SDS011;59;48.778;9.156;2022-08-03T09:19:09;3.30;;;2.23;;
553;SDS011;59;48.778;9.156;2022-08-03T09:21:37;3.50;;;2.60;;
553;SDS011;59;48.778;9.156;2022-08-03T09:24:04;2.30;;;2.13;;
553;SDS011;59;48.778;9.156;2022-08-03T09:26:31;2.80;;;2.40;;
553;SDS011;59;48.778;9.156;2022-08-03T09:29:02;3.40;;;2.07;;
553;SDS011;59;48.778;9.156;2022-08-03T09:31:38;2.20;;;1.90;;
553;SDS011;59;48.778;9.156;2022-08-03T09:34:06;2.53;;;2.40;;
553;SDS011;59;48.778;9.156;2022-08-03T09:36:47;2.40;;;2.00;;
553;SDS011;59;48.778;9.156;2022-08-03T09:39:15;3.93;;;2.10;;
553;SDS011;59;48.778;9.156;2022-08-03T09:41:43;5.03;;;2.80;;
553;SDS011;59;48.778;9.156;2022-08-03T09:44:10;6.53;;;2.83;;
553;SDS011;59;48.778;9.156;2022-08-03T09:47:09;6.70;;;2.50;;
553;SDS011;59;48.778;9.156;2022-08-03T09:49:28;3.80;;;2.40;;
553;SDS011;59;48.778;9.156;2022-08-03T09:51:54;4.20;;;2.40;;
553;SDS011;59;48.778;9.156;2022-08-03T09:54:29;2.30;;;2.00;;
553;SDS011;59;48.778;9.156;2022-08-03T09:56:56;8.90;;;2.47;;
553;SDS011;59;48.778;9.156;2022-08-03T09:59:26;4.83;;;2.20;;
553;SDS011;59;48.778;9.156;2022-08-03T10:01:54;4.13;;;2.50;;
553;SDS011;59;48.778;9.156;2022-08-03T10:04:20;18.00;;;3.10;;
553;SDS011;59;48.778;9.156;2022-08-03T10:09:30;3.93;;;2.50;;
553;SDS011;59;48.778;9.156;2022-08-03T10:11:56;3.07;;;2.00;;
553;SDS011;59;48.778;9.156;2022-08-03T10:14:23;3.47;;;2.40;;
553;SDS011;59;48.778;9.156;2022-08-03T10:16:54;3.30;;;2.30;;
553;SDS011;59;48.778;9.156;2022-08-03T10:19:19;2.60;;;2.47;;
553;SDS011;59;48.778;9.156;2022-08-03T10:21:46;2.90;;;2.07;;
553;SDS011;59;48.778;9.156;2022-08-03T10:24:16;3.07;;;2.30;;
553;SDS011;59;48.778;9.156;2022-08-03T10:26:49;2.97;;;2.33;;
553;SDS011;59;48.778;9.156;2022-08-03T10:29:17;11.83;;;2.90;;
553;SDS011;59;48.778;9.156;2022-08-03T10:31:49;5.83;;;3.60;;
553;SDS011;59;48.778;9.156;2022-08-03T10:34:21;6.53;;;2.80;;
553;SDS011;59;48.778;9.156;2022-08-03T10:36:48;11.13;;;3.07;;
553;SDS011;59;48.778;9.156;2022-08-03T10:39:18;5.63;;;2.63;;
553;SDS011;59;48.778;9.156;2022-08-03T10:41:46;4.27;;;2.43;;
553;SDS011;59;48.778;9.156;2022-08-03T10:44:19;3.40;;;2.10;;
553;SDS011;59;48.778;9.156;2022-08-03T10:46:47;2.93;;;2.07;;
553;SDS011;59;48.778;9.156;2022-08-03T10:49:16;5.57;;;4.23;;
553;SDS011;59;48.778;9.156;2022-08-03T10:51:46;5.50;;;4.10;;
553;SDS011;59;48.778;9.156;2022-08-03T11:00:22;2.73;;;2.53;;
553;SDS011;59;48.778;9.156;2022-08-03T11:03:04;3.13;;;2.33;;
553;SDS011;59;48.778;9.156;2022-08-03T11:05:40;3.03;;;2.37;;
553;SDS011;59;48.778;9.156;2022-08-03T11:10:59;2.17;;;2.00;;
553;SDS011;59;48.778;9.156;2022-08-03T11:13:27;4.10;;;3.13;;
553;SDS011;59;48.778;9.156;2022-08-03T11:15:56;4.97;;;3.50;;
553;SDS011;59;48.778;9.156;2022-08-03T11:18:23;3.63;;;3.00;;
553;SDS011;59;48.778;9.156;2022-08-03T11:23:19;2.47;;;2.27;;
553;SDS011;59;48.778;9.156;2022-08-03T11:26:14;1.80;;;1.70;;
553;SDS011;59;48.778;9.156;2022-08-03T11:28:46;3.10;;;2.43;;
553;SDS011;59;48.778;9.156;2022-08-03T11:39:42;3.50;;;3.07;;
553;SDS011;59;48.778;9.156;2022-08-03T11:44:51;2.70;;;2.40;;
553;SDS011;59;48.778;9.156;2022-08-03T11:47:21;2.20;;;2.00;;
553;SDS011;59;48.778;9.156;2022-08-03T11:49:49;3.07;;;2.37;;
553;SDS011;59;48.778;9.156;2022-08-03T11:52:15;2.60;;;2.27;;
553;SDS011;59;48.778;9.156;2022-08-03T11:54:41;2.70;;;2.33;;
553;SDS011;59;48.778;9.156;2022-08-03T11:57:08;2.70;;;2.20;;
553;SDS011;59;48.778;9.156;2022-08-03T11:59:35;2.30;;;2.10;;
553;SDS011;59;48.778;9.156;2022-08-03T12:02:07;3.43;;;2.30;;
553;SDS011;59;48.778;9.156;2022-08-03T12:04:50;2.40;;;2.20;;
553;SDS011;59;48.778;9.156;2022-08-03T12:07:24;2.67;;;2.57;;
553;SDS011;59;48.778;9.156;2022-08-03T12:12:39;2.87;;;2.30;;
553;SDS011;59;48.778;9.156;2022-08-03T12:15:06;2.20;;;2.10;;
553;SDS011;59;48.778;9.156;2022-08-03T12:20:03;2.83;;;2.67;;
553;SDS011;59;48.778;9.156;2022-08-03T12:22:37;2.60;;;2.40;;
553;SDS011;59;48.778;9.156;2022-08-03T12:25:07;2.67;;;2.47;;
553;SDS011;59;48.778;9.156;2022-08-03T12:27:33;6.13;;;2.70;;
553;SDS011;59;48.778;9.156;2022-08-03T12:29:59;2.73;;;2.60;;
553;SDS011;59;48.778;9.156;2022-08-03T12:32:28;3.80;;;2.37;;
553;SDS011;59;48.778;9.156;2022-08-03T12:34:55;5.13;;;2.60;;
553;SDS011;59;48.778;9.156;2022-08-03T12:37:24;2.60;;;2.17;;
553;SDS011;59;48.778;9.156;2022-08-03T12:39:54;5.93;;;2.80;;
553;SDS011;59;48.778;9.156;2022-08-03T12:42:21;4.13;;;3.03;;
553;SDS011;59;48.778;9.156;2022-08-03T12:44:57;3.33;;;2.67;;
553;SDS011;59;48.778;9.156;2022-08-03T12:47:23;2.80;;;2.50;;
553;SDS011;59;48.778;9.156;2022-08-03T12:49:49;2.23;;;2.10;;
553;SDS011;59;48.778;9.156;2022-08-03T12:52:16;2.40;;;2.20;;
553;SDS011;59;48.778;9.156;2022-08-03T12:54:53;2.20;;;2.00;;
553;SDS011;59;48.778;9.156;2022-08-03T12:57:23;2.43;;;2.23;;
553;SDS011;59;48.778;9.156;2022-08-03T12:59:48;2.23;;;2.03;;
553;SDS011;59;48.778;9.156;2022-08-03T13:02:15;2.70;;;2.50;;
553;SDS011;59;48.778;9.156;2022-08-03T13:04:45;3.57;;;2.43;;
553;SDS011;59;48.778;9.156;2022-08-03T13:07:11;7.47;;;5.90;;
553;SDS011;59;48.778;9.156;2022-08-03T13:09:45;25.70;;;20.90;;
553;SDS011;59;48.778;9.156;2022-08-03T13:12:12;21.53;;;18.17;;
553;SDS011;59;48.778;9.156;2022-08-03T13:14:43;13.83;;;13.13;;
553;SDS011;59;48.778;9.156;2022-08-03T13:17:10;6.70;;;6.30;;
553;SDS011;59;48.778;9.156;2022-08-03T13:19:36;6.83;;;5.40;;
553;SDS011;59;48.778;9.156;2022-08-03T13:22:12;5.20;;;4.20;;
553;SDS011;59;48.778;9.156;2022-08-03T13:24:55;3.30;;;2.90;;
553;SDS011;59;48.778;9.156;2022-08-03T13:27:21;2.90;;;2.70;;
553;SDS011;59;48.778;9.156;2022-08-03T13:29:52;2.80;;;2.60;;
553;SDS011;59;48.778;9.156;2022-08-03T13:32:18;3.20;;;2.70;;
553;SDS011;59;48.778;9.156;2022-08-03T13:34:44;2.60;;;2.40;;
553;SDS011;59;48.778;9.156;2022-08-03T13:37:10;3.83;;;2.93;;
553;SDS011;59;48.778;9.156;2022-08-03T13:39:36;3.43;;;2.60;;
553;SDS011;59;48.778;9.156;2022-08-03T13:42:02;2.70;;;2.47;;
553;SDS011;59;48.778;9.156;2022-08-03T13:44:29;2.50;;;2.23;;
553;SDS011;59;48.778;9.156;2022-08-03T13:46:55;3.60;;;2.40;;
553;SDS011;59;48.778;9.156;2022-08-03T13:49:21;3.10;;;2.80;;
553;SDS011;59;48.778;9.156;2022-08-03T13:51:47;2.67;;;2.47;;
553;SDS011;59;48.778;9.156;2022-08-03T13:54:12;2.60;;;2.40;;
553;SDS011;59;48.778;9.156;2022-08-03T13:56:38;2.47;;;2.20;;
553;SDS011;59;48.778;9.156;2022-08-03T13:59:04;2.60;;;2.40;;
553;SDS011;59;48.778;9.156;2022-08-03T14:01:30;2.93;;;2.50;;
553;SDS011;59;48.778;9.156;2022-08-03T14:03:56;2.63;;;2.47;;
553;SDS011;59;48.778;9.156;2022-08-03T14:06:22;2.80;;;2.63;;
553;SDS011;59;48.778;9.156;2022-08-03T14:08:49;2.97;;;2.57;;
553;SDS011;59;48.778;9.156;2022-08-03T14:11:15;2.63;;;2.43;;
553;SDS011;59;48.778;9.156;2022-08-03T14:13:41;3.33;;;2.30;;
553;SDS011;59;48.778;9.156;2022-08-03T14:16:07;2.77;;;2.60;;
553;SDS011;59;48.778;9.156;2022-08-03T14:18:32;2.63;;;2.47;;
553;SDS011;59;48.778;9.156;2022-08-03T14:20:58;2.67;;;2.50;;
553;SDS011;59;48.778;9.156;2022-08-03T14:23:25;2.67;;;2.47;;
553;SDS011;59;48.778;9.156;2022-08-03T14:25:50;2.63;;;2.43;;
553;SDS011;59;48.778;9.156;2022-08-03T14:28:16;2.37;;;2.20;;
553;SDS011;59;48.778;9.156;2022-08-03T14:30:43;2.50;;;2.30;;
553;SDS011;59;48.778;9.156;2022-08-03T14:33:08;2.37;;;2.20;;
553;SDS011;59;48.778;9.156;2022-08-03T14:35:34;3.50;;;2.30;;
553;SDS011;59;48.778;9.156;2022-08-03T14:37:59;2.90;;;2.40;;
553;SDS011;59;48.778;9.156;2022-08-03T14:40:25;2.60;;;2.40;;
553;SDS011;59;48.778;9.156;2022-08-03T14:42:51;3.13;;;2.77;;
553;SDS011;59;48.778;9.156;2022-08-03T14:45:17;2.30;;;2.10;;
553;SDS011;59;48.778;9.156;2022-08-03T14:47:42;8.03;;;7.20;;
553;SDS011;59;48.778;9.156;2022-08-03T14:50:08;6.20;;;4.77;;
553;SDS011;59;48.778;9.156;2022-08-03T14:52:34;4.80;;;2.97;;
553;SDS011;59;48.778;9.156;2022-08-03T14:55:00;2.90;;;2.70;;
553;SDS011;59;48.778;9.156;2022-08-03T14:57:26;2.83;;;2.57;;
553;SDS011;59;48.778;9.156;2022-08-03T14:59:51;3.43;;;2.70;;
553;SDS011;59;48.778;9.156;2022-08-03T15:02:17;3.50;;;2.57;;
553;SDS011;59;48.778;9.156;2022-08-03T15:04:43;2.83;;;2.67;;
553;SDS011;59;48.778;9.156;2022-08-03T15:07:09;5.17;;;2.60;;
553;SDS011;59;48.778;9.156;2022-08-03T15:09:35;3.07;;;2.67;;
553;SDS011;59;48.778;9.156;2022-08-03T15:12:02;2.60;;;2.40;;
553;SDS011;59;48.778;9.156;2022-08-03T15:14:29;2.73;;;2.57;;
553;SDS011;59;48.778;9.156;2022-08-03T15:16:54;2.70;;;2.50;;
553;SDS011;59;48.778;9.156;2022-08-03T15:19:20;2.67;;;2.50;;
553;SDS011;59;48.778;9.156;2022-08-03T15:21:45;2.30;;;2.10;;
553;SDS011;59;48.778;9.156;2022-08-03T15:24:11;2.60;;;2.10;;
553;SDS011;59;48.778;9.156;2022-08-03T15:26:37;2.80;;;2.43;;
553;SDS011;59;48.778;9.156;2022-08-03T15:29:02;2.57;;;2.37;;
553;SDS011;59;48.778;9.156;2022-08-03T15:31:28;3.00;;;2.30;;
553;SDS011;59;48.778;9.156;2022-08-03T15:33:54;2.60;;;2.40;;
553;SDS011;59;48.778;9.156;2022-08-03T15:36:19;2.63;;;2.43;;
553;SDS011;59;48.778;9.156;2022-08-03T15:38:45;2.60;;;2.40;;
553;SDS011;59;48.778;9.156;2022-08-03T15:41:12;3.20;;;2.60;;
553;SDS011;59;48.778;9.156;2022-08-03T15:43:38;2.83;;;2.23;;
553;SDS011;59;48.778;9.156;2022-08-03T15:46:04;2.30;;;2.10;;
553;SDS011;59;48.778;9.156;2022-08-03T15:48:30;2.77;;;2.30;;
553;SDS011;59;48.778;9.156;2022-08-03T15:50:56;2.90;;;2.30;;
553;SDS011;59;48.778;9.156;2022-08-03T15:53:24;6.20;;;2.53;;
553;SDS011;59;48.778;9.156;2022-08-03T15:55:50;2.57;;;2.20;;
553;SDS011;59;48.778;9.156;2022-08-03T15:58:16;2.40;;;2.23;;
553;SDS011;59;48.778;9.156;2022-08-03T16:00:42;2.40;;;2.20;;
553;SDS011;59;48.778;9.156;2022-08-03T16:03:08;2.60;;;2.37;;
553;SDS011;59;48.778;9.156;2022-08-03T16:05:33;2.67;;;2.50;;
553;SDS011;59;48.778;9.156;2022-08-03T16:07:59;2.60;;;2.40;;
553;SDS011;59;48.778;9.156;2022-08-03T16:10:25;3.97;;;2.47;;
553;SDS011;59;48.778;9.156;2022-08-03T16:12:54;3.10;;;2.90;;
553;SDS011;59;48.778;9.156;2022-08-03T16:15:20;4.40;;;4.10;;
553;SDS011;59;48.778;9.156;2022-08-03T16:17:45;4.10;;;3.90;;
553;SDS011;59;48.778;9.156;2022-08-03T16:20:11;3.80;;;3.60;;
553;SDS011;59;48.778;9.156;2022-08-03T16:22:45;3.53;;;3.10;;
553;SDS011;59;48.778;9.156;2022-08-03T16:25:13;3.03;;;2.60;;
553;SDS011;59;48.778;9.156;2022-08-03T16:27:39;3.90;;;2.97;;
553;SDS011;59;48.778;9.156;2022-08-03T16:30:05;2.40;;;2.20;;
553;SDS011;59;48.778;9.156;2022-08-03T16:32:32;2.67;;;2.47;;
553;SDS011;59;48.778;9.156;2022-08-03T16:34:58;2.23;;;2.03;;
553;SDS011;59;48.778;9.156;2022-08-03T16:37:24;2.80;;;2.63;;
553;SDS011;59;48.778;9.156;2022-08-03T16:39:50;2.87;;;2.67;;
553;SDS011;59;48.778;9.156;2022-08-03T16:42:15;3.47;;;2.70;;
553;SDS011;59;48.778;9.156;2022-08-03T16:44:41;6.03;;;2.90;;
553;SDS011;59;48.778;9.156;2022-08-03T16:47:07;2.93;;;2.73;;
553;SDS011;59;48.778;9.156;2022-08-03T16:49:33;3.10;;;2.90;;
553;SDS011;59;48.778;9.156;2022-08-03T16:51:58;2.80;;;2.60;;
553;SDS011;59;48.778;9.156;2022-08-03T16:54:25;2.50;;;2.30;;
553;SDS011;59;48.778;9.156;2022-08-03T16:56:51;3.47;;;2.40;;
553;SDS011;59;48.778;9.156;2022-08-03T16:59:17;2.80;;;2.50;;
553;SDS011;59;48.778;9.156;2022-08-03T17:01:43;2.57;;;2.37;;
553;SDS011;59;48.778;9.156;2022-08-03T17:04:11;3.23;;;2.33;;
553;SDS011;59;48.778;9.156;2022-08-03T17:06:38;2.70;;;2.40;;
553;SDS011;59;48.778;9.156;2022-08-03T17:09:06;2.73;;;2.53;;
553;SDS011;59;48.778;9.156;2022-08-03T17:11:40;2.23;;;2.13;;
553;SDS011;59;48.778;9.156;2022-08-03T17:14:06;2.50;;;2.27;;
553;SDS011;59;48.778;9.156;2022-08-03T17:16:32;4.27;;;3.10;;
553;SDS011;59;48.778;9.156;2022-08-03T17:18:58;9.77;;;7.90;;
553;SDS011;59;48.778;9.156;2022-08-03T17:21:29;8.77;;;7.03;;
553;SDS011;59;48.778;9.156;2022-08-03T17:23:57;7.07;;;5.90;;
553;SDS011;59;48.778;9.156;2022-08-03T17:26:24;4.13;;;3.40;;
553;SDS011;59;48.778;9.156;2022-08-03T17:28:51;4.67;;;3.87;;
553;SDS011;59;48.778;9.156;2022-08-03T17:31:18;4.43;;;3.90;;
553;SDS011;59;48.778;9.156;2022-08-03T17:33:45;3.87;;;3.63;;
553;SDS011;59;48.778;9.156;2022-08-03T17:36:13;3.23;;;3.10;;
553;SDS011;59;48.778;9.156;2022-08-03T17:38:45;3.20;;;3.00;;
553;SDS011;59;48.778;9.156;2022-08-03T17:41:12;2.87;;;2.67;;
553;SDS011;59;48.778;9.156;2022-08-03T17:43:39;3.70;;;2.77;;
553;SDS011;59;48.778;9.156;2022-08-03T17:46:05;3.70;;;2.90;;
553;SDS011;59;48.778;9.156;2022-08-03T17:48:31;3.90;;;3.10;;
553;SDS011;59;48.778;9.156;2022-08-03T17:51:42;3.17;;;2.83;;
553;SDS011;59;48.778;9.156;2022-08-03T17:54:09;3.40;;;2.73;;
553;SDS011;59;48.778;9.156;2022-08-03T18:05:24;16.60;;;15.20;;
553;SDS011;59;48.778;9.156;2022-08-03T18:07:55;17.50;;;16.00;;
553;SDS011;59;48.778;9.156;2022-08-03T18:10:22;16.33;;;14.40;;
553;SDS011;59;48.778;9.156;2022-08-03T18:12:53;13.23;;;12.60;;
553;SDS011;59;48.778;9.156;2022-08-03T18:15:23;11.40;;;10.37;;
553;SDS011;59;48.778;9.156;2022-08-03T18:17:54;10.27;;;9.30;;
553;SDS011;59;48.778;9.156;2022-08-03T18:20:20;9.03;;;8.37;;
553;SDS011;59;48.778;9.156;2022-08-03T18:22:47;9.63;;;8.60;;
553;SDS011;59;48.778;9.156;2022-08-03T18:25:13;7.87;;;7.47;;
553;SDS011;59;48.778;9.156;2022-08-03T18:27:39;7.20;;;6.40;;
553;SDS011;59;48.778;9.156;2022-08-03T18:30:05;7.13;;;6.30;;
553;SDS011;59;48.778;9.156;2022-08-03T18:32:32;9.10;;;8.27;;
553;SDS011;59;48.778;9.156;2022-08-03T18:34:59;10.67;;;9.27;;
553;SDS011;59;48.778;9.156;2022-08-03T18:37:27;9.90;;;8.80;;
553;SDS011;59;48.778;9.156;2022-08-03T18:39:54;9.20;;;8.10;;
553;SDS011;59;48.778;9.156;2022-08-03T18:42:20;7.67;;;7.07;;
553;SDS011;59;48.778;9.156;2022-08-03T18:44:46;6.80;;;6.33;;
553;SDS011;59;48.778;9.156;2022-08-03T18:47:29;5.80;;;5.50;;
553;SDS011;59;48.778;9.156;2022-08-03T18:52:42;5.10;;;4.80;;
553;SDS011;59;48.778;9.156;2022-08-03T18:55:25;5.70;;;5.43;;
553;SDS011;59;48.778;9.156;2022-08-03T19:00:37;5.77;;;4.90;;
553;SDS011;59;48.778;9.156;2022-08-03T19:03:06;5.07;;;4.87;;
553;SDS011;59;48.778;9.156;2022-08-03T19:05:41;4.40;;;4.10;;
553;SDS011;59;48.778;9.156;2022-08-03T19:08:14;4.40;;;4.20;;
553;SDS011;59;48.778;9.156;2022-08-03T19:10:41;4.43;;;4.20;;
553;SDS011;59;48.778;9.156;2022-08-03T19:13:22;4.00;;;3.80;;
553;SDS011;59;48.778;9.156;2022-08-03T19:15:50;4.10;;;3.73;;
553;SDS011;59;48.778;9.156;2022-08-03T19:18:16;4.53;;;4.30;;
553;SDS011;59;48.778;9.156;2022-08-03T19:20:42;5.43;;;4.23;;
553;SDS011;59;48.778;9.156;2022-08-03T19:23:10;4.50;;;4.20;;
553;SDS011;59;48.778;9.156;2022-08-03T19:25:39;4.73;;;4.53;;
553;SDS011;59;48.778;9.156;2022-08-03T19:28:05;6.93;;;4.40;;
553;SDS011;59;48.778;9.156;2022-08-03T19:30:37;4.80;;;4.07;;
553;SDS011;59;48.778;9.156;2022-08-03T19:33:04;5.60;;;4.33;;
553;SDS011;59;48.778;9.156;2022-08-03T19:35:35;4.90;;;4.10;;
553;SDS011;59;48.778;9.156;2022-08-03T19:38:05;5.27;;;4.40;;
553;SDS011;59;48.778;9.156;2022-08-03T19:40:31;3.77;;;3.63;;
553;SDS011;59;48.778;9.156;2022-08-03T19:42:59;4.13;;;3.80;;
553;SDS011;59;48.778;9.156;2022-08-03T19:45:31;4.87;;;4.10;;
553;SDS011;59;48.778;9.156;2022-08-03T19:48:02;4.20;;;4.00;;
553;SDS011;59;48.778;9.156;2022-08-03T19:50:33;4.87;;;3.50;;
553;SDS011;59;48.778;9.156;2022-08-03T19:53:05;3.90;;;3.70;;
553;SDS011;59;48.778;9.156;2022-08-03T19:55:33;3.73;;;3.57;;
553;SDS011;59;48.778;9.156;2022-08-03T19:58:00;4.50;;;4.17;;
553;SDS011;59;48.778;9.156;2022-08-03T20:00:28;4.70;;;4.07;;
553;SDS011;59;48.778;9.156;2022-08-03T20:02:55;4.73;;;3.73;;
553;SDS011;59;48.778;9.156;2022-08-03T20:05:22;4.00;;;3.63;;
553;SDS011;59;48.778;9.156;2022-08-03T20:07:47;4.30;;;3.70;;
553;SDS011;59;48.778;9.156;2022-08-03T20:10:15;3.83;;;3.70;;
553;SDS011;59;48.778;9.156;2022-08-03T20:12:42;4.30;;;3.83;;
553;SDS011;59;48.778;9.156;2022-08-03T20:15:09;4.43;;;4.13;;
553;SDS011;59;48.778;9.156;2022-08-03T20:17:36;5.30;;;3.93;;
553;SDS011;59;48.778;9.156;2022-08-03T20:20:03;4.13;;;3.50;;
553;SDS011;59;48.778;9.156;2022-08-03T20:22:33;4.33;;;3.83;;
553;SDS011;59;48.778;9.156;2022-08-03T20:25:02;5.10;;;4.20;;
553;SDS011;59;48.778;9.156;2022-08-03T20:27:33;4.00;;;3.87;;
553;SDS011;59;48.778;9.156;2022-08-03T20:32:33;6.30;;;5.27;;
553;SDS011;59;48.778;9.156;2022-08-03T20:34:59;6.37;;;5.27;;
553;SDS011;59;48.778;9.156;2022-08-03T20:37:25;6.97;;;5.30;;
553;SDS011;59;48.778;9.156;2022-08-03T20:39:50;4.53;;;4.27;;
553;SDS011;59;48.778;9.156;2022-08-03T20:42:18;5.97;;;4.67;;
553;SDS011;59;48.778;9.156;2022-08-03T20:44:43;6.17;;;5.20;;
553;SDS011;59;48.778;9.156;2022-08-03T20:47:09;5.67;;;4.40;;
553;SDS011;59;48.778;9.156;2022-08-03T20:49:36;4.90;;;4.20;;
553;SDS011;59;48.778;9.156;2022-08-03T20:52:03;5.00;;;4.10;;
553;SDS011;59;48.778;9.156;2022-08-03T20:54:30;5.27;;;3.90;;
553;SDS011;59;48.778;9.156;2022-08-03T20:57:00;4.67;;;4.30;;
553;SDS011;59;48.778;9.156;2022-08-03T20:59:26;4.70;;;4.07;;
553;SDS011;59;48.778;9.156;2022-08-03T21:01:54;4.53;;;3.60;;
553;SDS011;59;48.778;9.156;2022-08-03T21:04:20;4.00;;;3.50;;
553;SDS011;59;48.778;9.156;2022-08-03T21:06:48;4.70;;;3.60;;
553;SDS011;59;48.778;9.156;2022-08-03T21:09:18;3.83;;;3.00;;
553;SDS011;59;48.778;9.156;2022-08-03T21:11:47;5.37;;;3.23;;
553;SDS011;59;48.778;9.156;2022-08-03T21:14:16;4.27;;;3.43;;
553;SDS011;59;48.778;9.156;2022-08-03T21:16:50;5.53;;;3.07;;
553;SDS011;59;48.778;9.156;2022-08-03T21:19:19;3.47;;;2.77;;
553;SDS011;59;48.778;9.156;2022-08-03T21:21:45;3.00;;;2.70;;
553;SDS011;59;48.778;9.156;2022-08-03T21:24:12;3.60;;;2.80;;
553;SDS011;59;48.778;9.156;2022-08-03T21:26:38;2.50;;;2.40;;
553;SDS011;59;48.778;9.156;2022-08-03T21:29:04;3.10;;;2.80;;
553;SDS011;59;48.778;9.156;2022-08-03T21:31:30;2.60;;;2.40;;
553;SDS011;59;48.778;9.156;2022-08-03T21:33:57;2.83;;;2.47;;
553;SDS011;59;48.778;9.156;2022-08-03T21:36:28;2.50;;;2.30;;
553;SDS011;59;48.778;9.156;2022-08-03T21:38:55;2.60;;;2.40;;
553;SDS011;59;48.778;9.156;2022-08-03T21:41:21;4.30;;;3.00;;
553;SDS011;59;48.778;9.156;2022-08-03T21:43:46;4.40;;;3.10;;
553;SDS011;59;48.778;9.156;2022-08-03T21:46:12;3.20;;;2.80;;
553;SDS011;59;48.778;9.156;2022-08-03T21:48:39;2.60;;;2.50;;
553;SDS011;59;48.778;9.156;2022-08-03T21:51:07;2.87;;;2.67;;
553;SDS011;59;48.778;9.156;2022-08-03T21:53:33;2.93;;;2.73;;
553;SDS011;59;48.778;9.156;2022-08-03T21:56:09;3.97;;;2.93;;
553;SDS011;59;48.778;9.156;2022-08-03T21:58:54;3.13;;;2.73;;
553;SDS011;59;48.778;9.156;2022-08-03T22:01:24;3.73;;;2.77;;
553;SDS011;59;48.778;9.156;2022-08-03T22:03:53;3.00;;;2.80;;
553;SDS011;59;48.778;9.156;2022-08-03T22:06:20;2.93;;;2.60;;
553;SDS011;59;48.778;9.156;2022-08-03T22:08:46;3.67;;;2.93;;
553;SDS011;59;48.778;9.156;2022-08-03T22:11:13;3.27;;;2.97;;
553;SDS011;59;48.778;9.156;2022-08-03T22:13:39;2.93;;;2.73;;
553;SDS011;59;48.778;9.156;2022-08-03T22:16:07;3.80;;;2.70;;
553;SDS011;59;48.778;9.156;2022-08-03T22:18:36;3.00;;;2.77;;
553;SDS011;59;48.778;9.156;2022-08-03T22:21:03;3.27;;;3.17;;
553;SDS011;59;48.778;9.156;2022-08-03T22:23:30;3.80;;;3.20;;
553;SDS011;59;48.778;9.156;2022-08-03T22:26:12;4.33;;;3.20;;
553;SDS011;59;48.778;9.156;2022-08-03T22:28:45;3.63;;;2.90;;
553;SDS011;59;48.778;9.156;2022-08-03T22:31:11;3.07;;;2.77;;
553;SDS011;59;48.778;9.156;2022-08-03T22:33:37;3.37;;;3.00;;
553;SDS011;59;48.778;9.156;2022-08-03T22:36:03;3.70;;;2.97;;
553;SDS011;59;48.778;9.156;2022-08-03T22:38:31;3.23;;;2.70;;
553;SDS011;59;48.778;9.156;2022-08-03T22:40:57;3.07;;;2.93;;
553;SDS011;59;48.778;9.156;2022-08-03T22:43:26;3.13;;;2.80;;
553;SDS011;59;48.778;9.156;2022-08-03T22:45:53;2.87;;;2.70;;
553;SDS011;59;48.778;9.156;2022-08-03T22:48:19;3.00;;;2.80;;
553;SDS011;59;48.778;9.156;2022-08-03T22:50:46;3.90;;;2.90;;
553;SDS011;59;48.778;9.156;2022-08-03T22:53:15;3.73;;;3.30;;
553;SDS011;59;48.778;9.156;2022-08-03T22:55:42;3.97;;;3.27;;
553;SDS011;59;48.778;9.156;2022-08-03T22:58:08;3.63;;;3.20;;
553;SDS011;59;48.778;9.156;2022-08-03T23:00:35;3.27;;;2.70;;
553;SDS011;59;48.778;9.156;2022-08-03T23:03:06;3.87;;;3.00;;
553;SDS011;59;48.778;9.156;2022-08-03T23:05:32;2.97;;;2.80;;
553;SDS011;59;48.778;9.156;2022-08-03T23:07:58;3.10;;;2.90;;
553;SDS011;59;48.778;9.156;2022-08-03T23:10:27;4.90;;;3.10;;
553;SDS011;59;48.778;9.156;2022-08-03T23:12:55;3.57;;;2.83;;